sensor_id;sensor_type;location;lat;lon;timestamp;temperature;humidity
2489;DHT22;1255;48.716;9.124;2023-03-01T00:00:18;-2.10;99.90
2489;DHT22;1255;48.716;9.124;2023-03-01T00:02:45;-2.20;99.90
2489;DHT22;1255;48.716;9.124;2023-03-01T00:05:12;-2.20;99.90
2489;DHT22;1255;48.716;9.124;2023-03-01T00:07:40;-2.20;99.90
2489;DHT22;1255;48.716;9.124;2023-03-01T00:10:08;-2.20;99.90
2489;DHT22;1255;48.716;9.124;2023-03-01T00:12:35;-2.20;99.90
2489;DHT22;1255;48.716;9.124;2023-03-01T00:15:02;-2.20;99.90
2489;DHT22;1255;48.716;9.124;2023-03-01T00:17:30;-2.30;99.90
2489;DHT22;1255;48.716;9.124;2023-03-01T00:19:57;-2.30;99.90
2489;DHT22;1255;48.716;9.124;2023-03-01T00:22:24;-2.30;99.90
2489;DHT22;1255;48.716;9.124;2023-03-01T00:24:54;-2.40;99.90
2489;DHT22;1255;48.716;9.124;2023-03-01T00:27:21;-2.40;99.90
2489;DHT22;1255;48.716;9.124;2023-03-01T00:29:48;-2.40;99.90
2489;DHT22;1255;48.716;9.124;2023-03-01T00:32:14;-2.40;99.90
2489;DHT22;1255;48.716;9.124;2023-03-01T00:34:41;-2.40;99.90
2489;DHT22;1255;48.716;9.124;2023-03-01T00:37:14;-2.50;99.90
2489;DHT22;1255;48.716;9.124;2023-03-01T00:39:41;-2.50;99.90
2489;DHT22;1255;48.716;9.124;2023-03-01T00:42:09;-2.50;99.90
2489;DHT22;1255;48.716;9.124;2023-03-01T00:44:36;-2.50;99.90
2489;DHT22;1255;48.716;9.124;2023-03-01T00:47:03;-2.50;99.90
2489;DHT22;1255;48.716;9.124;2023-03-01T00:49:30;-2.50;99.90
2489;DHT22;1255;48.716;9.124;2023-03-01T00:51:57;-2.50;99.90
2489;DHT22;1255;48.716;9.124;2023-03-01T00:54:24;-2.50;99.90
2489;DHT22;1255;48.716;9.124;2023-03-01T00:56:51;-2.50;99.90
2489;DHT22;1255;48.716;9.124;2023-03-01T00:59:19;-2.50;99.90
2489;DHT22;1255;48.716;9.124;2023-03-01T01:01:46;-2.50;99.90
2489;DHT22;1255;48.716;9.124;2023-03-01T01:04:13;-2.60;99.90
2489;DHT22;1255;48.716;9.124;2023-03-01T01:06:43;-2.60;99.90
2489;DHT22;1255;48.716;9.124;2023-03-01T01:09:11;-2.60;99.90
2489;DHT22;1255;48.716;9.124;2023-03-01T01:11:43;-2.60;99.90
2489;DHT22;1255;48.716;9.124;2023-03-01T01:14:09;-2.60;99.90
2489;DHT22;1255;48.716;9.124;2023-03-01T01:16:38;-2.60;99.90
2489;DHT22;1255;48.716;9.124;2023-03-01T01:19:05;-2.70;99.90
2489;DHT22;1255;48.716;9.124;2023-03-01T01:21:32;-2.70;99.90
2489;DHT22;1255;48.716;9.124;2023-03-01T01:23:59;-2.70;99.90
2489;DHT22;1255;48.716;9.124;2023-03-01T01:26:28;-2.70;99.90
2489;DHT22;1255;48.716;9.124;2023-03-01T01:28:56;-2.70;99.90
2489;DHT22;1255;48.716;9.124;2023-03-01T01:31:24;-2.70;99.90
2489;DHT22;1255;48.716;9.124;2023-03-01T01:33:52;-2.70;99.90
2489;DHT22;1255;48.716;9.124;2023-03-01T01:36:19;-2.80;99.90
2489;DHT22;1255;48.716;9.124;2023-03-01T01:38:46;-2.80;99.90
2489;DHT22;1255;48.716;9.124;2023-03-01T01:41:14;-2.70;99.90
2489;DHT22;1255;48.716;9.124;2023-03-01T01:43:43;-2.80;99.90
2489;DHT22;1255;48.716;9.124;2023-03-01T01:46:17;-2.80;99.90
2489;DHT22;1255;48.716;9.124;2023-03-01T01:48:55;-2.80;99.90
2489;DHT22;1255;48.716;9.124;2023-03-01T01:51:27;-2.80;99.90
2489;DHT22;1255;48.716;9.124;2023-03-01T01:53:57;-2.70;99.90
2489;DHT22;1255;48.716;9.124;2023-03-01T01:56:26;-2.80;99.90
2489;DHT22;1255;48.716;9.124;2023-03-01T01:58:56;-2.80;99.90
2489;DHT22;1255;48.716;9.124;2023-03-01T02:01:23;-2.80;99.90
2489;DHT22;1255;48.716;9.124;2023-03-01T02:03:51;-2.70;99.90
2489;DHT22;1255;48.716;9.124;2023-03-01T02:06:24;-2.60;99.90
2489;DHT22;1255;48.716;9.124;2023-03-01T02:08:55;-2.60;99.90
2489;DHT22;1255;48.716;9.124;2023-03-01T02:11:24;-2.50;99.90
2489;DHT22;1255;48.716;9.124;2023-03-01T02:13:52;-2.40;99.90
2489;DHT22;1255;48.716;9.124;2023-03-01T02:16:20;-2.30;99.90
2489;DHT22;1255;48.716;9.124;2023-03-01T02:18:47;-2.10;99.90
2489;DHT22;1255;48.716;9.124;2023-03-01T02:21:27;-2.00;99.90
2489;DHT22;1255;48.716;9.124;2023-03-01T02:23:56;-1.90;99.90
2489;DHT22;1255;48.716;9.124;2023-03-01T02:26:30;-1.80;99.90
2489;DHT22;1255;48.716;9.124;2023-03-01T02:29:01;-1.80;99.90
2489;DHT22;1255;48.716;9.124;2023-03-01T02:31:27;-1.70;99.90
2489;DHT22;1255;48.716;9.124;2023-03-01T02:34:11;-1.70;99.90
2489;DHT22;1255;48.716;9.124;2023-03-01T02:36:42;-1.60;99.90
2489;DHT22;1255;48.716;9.124;2023-03-01T02:39:13;-1.50;99.90
2489;DHT22;1255;48.716;9.124;2023-03-01T02:41:46;-1.50;99.90
2489;DHT22;1255;48.716;9.124;2023-03-01T02:44:14;-1.40;99.90
2489;DHT22;1255;48.716;9.124;2023-03-01T02:46:47;-1.40;99.90
2489;DHT22;1255;48.716;9.124;2023-03-01T02:49:23;-1.30;99.90
2489;DHT22;1255;48.716;9.124;2023-03-01T02:52:07;-1.30;99.90
2489;DHT22;1255;48.716;9.124;2023-03-01T02:54:40;-1.30;99.90
2489;DHT22;1255;48.716;9.124;2023-03-01T02:57:08;-1.30;99.90
2489;DHT22;1255;48.716;9.124;2023-03-01T02:59:37;-1.30;99.90
2489;DHT22;1255;48.716;9.124;2023-03-01T03:02:06;-1.20;99.90
2489;DHT22;1255;48.716;9.124;2023-03-01T03:04:32;-1.20;99.90
2489;DHT22;1255;48.716;9.124;2023-03-01T03:06:59;-1.20;99.90
2489;DHT22;1255;48.716;9.124;2023-03-01T03:09:26;-1.20;99.90
2489;DHT22;1255;48.716;9.124;2023-03-01T03:11:53;-1.20;99.90
2489;DHT22;1255;48.716;9.124;2023-03-01T03:14:20;-1.20;99.90
2489;DHT22;1255;48.716;9.124;2023-03-01T03:16:49;-1.10;99.90
2489;DHT22;1255;48.716;9.124;2023-03-01T03:19:17;-1.10;99.90
2489;DHT22;1255;48.716;9.124;2023-03-01T03:21:44;-1.00;99.90
2489;DHT22;1255;48.716;9.124;2023-03-01T03:24:11;-1.00;99.90
2489;DHT22;1255;48.716;9.124;2023-03-01T03:26:38;-1.00;99.90
2489;DHT22;1255;48.716;9.124;2023-03-01T03:29:05;-0.90;99.90
2489;DHT22;1255;48.716;9.124;2023-03-01T03:31:31;-1.00;99.90
2489;DHT22;1255;48.716;9.124;2023-03-01T03:33:59;-1.00;99.90
2489;DHT22;1255;48.716;9.124;2023-03-01T03:36:26;-1.00;99.90
2489;DHT22;1255;48.716;9.124;2023-03-01T03:38:53;-1.00;99.90
2489;DHT22;1255;48.716;9.124;2023-03-01T03:41:19;-1.00;99.90
2489;DHT22;1255;48.716;9.124;2023-03-01T03:43:46;-1.00;99.90
2489;DHT22;1255;48.716;9.124;2023-03-01T03:46:14;-0.90;99.90
2489;DHT22;1255;48.716;9.124;2023-03-01T03:48:43;-0.90;99.90
2489;DHT22;1255;48.716;9.124;2023-03-01T03:51:13;-0.90;99.90
2489;DHT22;1255;48.716;9.124;2023-03-01T03:53:41;-0.90;99.90
2489;DHT22;1255;48.716;9.124;2023-03-01T03:56:08;-0.90;99.90
2489;DHT22;1255;48.716;9.124;2023-03-01T03:58:35;-0.90;99.90
2489;DHT22;1255;48.716;9.124;2023-03-01T04:01:02;-0.90;99.90
2489;DHT22;1255;48.716;9.124;2023-03-01T04:03:30;-0.90;99.90
2489;DHT22;1255;48.716;9.124;2023-03-01T04:05:57;-0.90;99.90
2489;DHT22;1255;48.716;9.124;2023-03-01T04:08:26;-0.80;99.90
2489;DHT22;1255;48.716;9.124;2023-03-01T04:10:58;-0.80;99.90
2489;DHT22;1255;48.716;9.124;2023-03-01T04:13:25;-0.80;99.90
2489;DHT22;1255;48.716;9.124;2023-03-01T04:15:53;-0.80;99.90
2489;DHT22;1255;48.716;9.124;2023-03-01T04:18:22;-0.80;99.90
2489;DHT22;1255;48.716;9.124;2023-03-01T04:20:48;-0.80;99.90
2489;DHT22;1255;48.716;9.124;2023-03-01T04:23:19;-0.80;99.90
2489;DHT22;1255;48.716;9.124;2023-03-01T04:25:48;-0.80;99.90
2489;DHT22;1255;48.716;9.124;2023-03-01T04:28:19;-0.80;99.90
2489;DHT22;1255;48.716;9.124;2023-03-01T04:30:46;-0.70;99.90
2489;DHT22;1255;48.716;9.124;2023-03-01T04:33:13;-0.70;99.90
2489;DHT22;1255;48.716;9.124;2023-03-01T04:35:40;-0.70;99.90
2489;DHT22;1255;48.716;9.124;2023-03-01T04:38:07;-0.70;99.90
2489;DHT22;1255;48.716;9.124;2023-03-01T04:40:34;-0.70;99.90
2489;DHT22;1255;48.716;9.124;2023-03-01T04:43:03;-0.70;99.90
2489;DHT22;1255;48.716;9.124;2023-03-01T04:45:32;-0.70;99.90
2489;DHT22;1255;48.716;9.124;2023-03-01T04:47:59;-0.70;99.90
2489;DHT22;1255;48.716;9.124;2023-03-01T04:50:26;-0.60;99.90
2489;DHT22;1255;48.716;9.124;2023-03-01T04:52:54;-0.60;99.90
2489;DHT22;1255;48.716;9.124;2023-03-01T04:55:24;-0.60;99.90
2489;DHT22;1255;48.716;9.124;2023-03-01T04:57:51;-0.60;99.90
2489;DHT22;1255;48.716;9.124;2023-03-01T05:00:20;-0.60;99.90
2489;DHT22;1255;48.716;9.124;2023-03-01T05:02:49;-0.60;99.90
2489;DHT22;1255;48.716;9.124;2023-03-01T05:05:19;-0.60;99.90
2489;DHT22;1255;48.716;9.124;2023-03-01T05:07:47;-0.60;99.90
2489;DHT22;1255;48.716;9.124;2023-03-01T05:10:13;-0.50;99.90
2489;DHT22;1255;48.716;9.124;2023-03-01T05:12:40;-0.50;99.90
2489;DHT22;1255;48.716;9.124;2023-03-01T05:15:07;-0.50;99.90
2489;DHT22;1255;48.716;9.124;2023-03-01T05:17:35;-0.50;99.90
2489;DHT22;1255;48.716;9.124;2023-03-01T05:20:03;-0.60;99.90
2489;DHT22;1255;48.716;9.124;2023-03-01T05:22:33;-0.60;99.90
2489;DHT22;1255;48.716;9.124;2023-03-01T05:24:59;-0.60;99.90
2489;DHT22;1255;48.716;9.124;2023-03-01T05:27:26;-0.50;99.90
2489;DHT22;1255;48.716;9.124;2023-03-01T05:29:53;-0.50;99.90
2489;DHT22;1255;48.716;9.124;2023-03-01T05:32:19;-0.50;99.90
2489;DHT22;1255;48.716;9.124;2023-03-01T05:34:48;-0.50;99.90
2489;DHT22;1255;48.716;9.124;2023-03-01T05:37:17;-0.50;99.90
2489;DHT22;1255;48.716;9.124;2023-03-01T05:39:45;-0.50;99.90
2489;DHT22;1255;48.716;9.124;2023-03-01T05:42:11;-0.50;99.90
2489;DHT22;1255;48.716;9.124;2023-03-01T05:44:38;-0.50;99.90
2489;DHT22;1255;48.716;9.124;2023-03-01T05:47:05;-0.40;99.90
2489;DHT22;1255;48.716;9.124;2023-03-01T05:49:32;-0.40;99.90
2489;DHT22;1255;48.716;9.124;2023-03-01T05:52:00;-0.40;99.90
2489;DHT22;1255;48.716;9.124;2023-03-01T05:54:27;-0.30;99.90
2489;DHT22;1255;48.716;9.124;2023-03-01T05:56:54;-0.40;99.90
2489;DHT22;1255;48.716;9.124;2023-03-01T05:59:21;-0.30;99.90
2489;DHT22;1255;48.716;9.124;2023-03-01T06:01:48;-0.30;99.90
2489;DHT22;1255;48.716;9.124;2023-03-01T06:04:15;-0.30;99.90
2489;DHT22;1255;48.716;9.124;2023-03-01T06:06:42;-0.20;99.90
2489;DHT22;1255;48.716;9.124;2023-03-01T06:09:10;-0.20;99.90
2489;DHT22;1255;48.716;9.124;2023-03-01T06:11:37;-0.30;99.90
2489;DHT22;1255;48.716;9.124;2023-03-01T06:14:04;-0.20;99.90
2489;DHT22;1255;48.716;9.124;2023-03-01T06:16:32;-0.20;99.90
2489;DHT22;1255;48.716;9.124;2023-03-01T06:18:58;-0.20;99.90
2489;DHT22;1255;48.716;9.124;2023-03-01T06:21:25;-0.20;99.90
2489;DHT22;1255;48.716;9.124;2023-03-01T06:23:52;-0.20;99.90
2489;DHT22;1255;48.716;9.124;2023-03-01T06:26:20;-0.20;99.90
2489;DHT22;1255;48.716;9.124;2023-03-01T06:28:46;-0.20;99.90
2489;DHT22;1255;48.716;9.124;2023-03-01T06:31:13;-0.10;99.90
2489;DHT22;1255;48.716;9.124;2023-03-01T06:33:40;-0.10;99.90
2489;DHT22;1255;48.716;9.124;2023-03-01T06:36:08;-0.10;99.90
2489;DHT22;1255;48.716;9.124;2023-03-01T06:38:35;0.00;99.90
2489;DHT22;1255;48.716;9.124;2023-03-01T06:41:02;-0.10;99.90
2489;DHT22;1255;48.716;9.124;2023-03-01T06:43:30;0.00;99.90
2489;DHT22;1255;48.716;9.124;2023-03-01T06:45:57;0.00;99.90
2489;DHT22;1255;48.716;9.124;2023-03-01T06:48:23;0.10;99.90
2489;DHT22;1255;48.716;9.124;2023-03-01T06:50:50;0.20;99.90
2489;DHT22;1255;48.716;9.124;2023-03-01T06:53:17;0.20;99.90
2489;DHT22;1255;48.716;9.124;2023-03-01T06:55:43;0.20;99.90
2489;DHT22;1255;48.716;9.124;2023-03-01T06:58:10;0.30;99.90
2489;DHT22;1255;48.716;9.124;2023-03-01T07:00:38;0.40;99.90
2489;DHT22;1255;48.716;9.124;2023-03-01T07:03:06;0.40;99.90
2489;DHT22;1255;48.716;9.124;2023-03-01T07:05:33;0.50;99.90
2489;DHT22;1255;48.716;9.124;2023-03-01T07:08:00;0.60;99.90
2489;DHT22;1255;48.716;9.124;2023-03-01T07:10:26;0.60;99.90
2489;DHT22;1255;48.716;9.124;2023-03-01T07:12:55;0.60;99.90
2489;DHT22;1255;48.716;9.124;2023-03-01T07:15:21;0.70;99.90
2489;DHT22;1255;48.716;9.124;2023-03-01T07:17:49;0.80;99.90
2489;DHT22;1255;48.716;9.124;2023-03-01T07:20:16;1.10;99.90
2489;DHT22;1255;48.716;9.124;2023-03-01T07:22:43;1.50;99.90
2489;DHT22;1255;48.716;9.124;2023-03-01T07:25:10;2.10;99.90
2489;DHT22;1255;48.716;9.124;2023-03-01T07:27:37;2.70;99.90
2489;DHT22;1255;48.716;9.124;2023-03-01T07:30:05;3.50;99.90
2489;DHT22;1255;48.716;9.124;2023-03-01T07:32:32;4.20;99.90
2489;DHT22;1255;48.716;9.124;2023-03-01T07:35:00;4.70;99.50
2489;DHT22;1255;48.716;9.124;2023-03-01T07:37:26;5.20;98.70
2489;DHT22;1255;48.716;9.124;2023-03-01T07:39:53;5.80;97.80
2489;DHT22;1255;48.716;9.124;2023-03-01T07:42:20;6.10;97.20
2489;DHT22;1255;48.716;9.124;2023-03-01T07:44:47;6.40;96.10
2489;DHT22;1255;48.716;9.124;2023-03-01T07:47:14;6.80;95.40
2489;DHT22;1255;48.716;9.124;2023-03-01T07:49:41;6.80;95.10
2489;DHT22;1255;48.716;9.124;2023-03-01T07:52:11;7.20;95.10
2489;DHT22;1255;48.716;9.124;2023-03-01T07:54:38;7.50;94.60
2489;DHT22;1255;48.716;9.124;2023-03-01T07:57:05;7.70;93.80
2489;DHT22;1255;48.716;9.124;2023-03-01T07:59:32;8.30;93.70
2489;DHT22;1255;48.716;9.124;2023-03-01T08:01:59;8.80;92.80
2489;DHT22;1255;48.716;9.124;2023-03-01T08:04:27;9.00;92.30
2489;DHT22;1255;48.716;9.124;2023-03-01T08:06:55;8.90;92.10
2489;DHT22;1255;48.716;9.124;2023-03-01T08:09:23;8.70;92.00
2489;DHT22;1255;48.716;9.124;2023-03-01T08:11:50;8.90;91.80
2489;DHT22;1255;48.716;9.124;2023-03-01T08:14:17;9.20;91.60
2489;DHT22;1255;48.716;9.124;2023-03-01T08:16:44;9.50;91.20
2489;DHT22;1255;48.716;9.124;2023-03-01T08:19:11;9.50;90.80
2489;DHT22;1255;48.716;9.124;2023-03-01T08:21:38;10.00;90.50
2489;DHT22;1255;48.716;9.124;2023-03-01T08:24:06;10.20;89.90
2489;DHT22;1255;48.716;9.124;2023-03-01T08:26:34;10.80;88.30
2489;DHT22;1255;48.716;9.124;2023-03-01T08:29:01;10.70;88.00
2489;DHT22;1255;48.716;9.124;2023-03-01T08:31:30;10.80;87.10
2489;DHT22;1255;48.716;9.124;2023-03-01T08:33:59;11.30;86.50
2489;DHT22;1255;48.716;9.124;2023-03-01T08:36:27;11.60;85.10
2489;DHT22;1255;48.716;9.124;2023-03-01T08:38:55;11.70;85.00
2489;DHT22;1255;48.716;9.124;2023-03-01T08:41:21;11.50;85.00
2489;DHT22;1255;48.716;9.124;2023-03-01T08:43:50;12.10;83.40
2489;DHT22;1255;48.716;9.124;2023-03-01T08:46:18;12.80;82.50
2489;DHT22;1255;48.716;9.124;2023-03-01T08:48:45;12.90;81.30
2489;DHT22;1255;48.716;9.124;2023-03-01T08:51:14;12.80;82.00
2489;DHT22;1255;48.716;9.124;2023-03-01T08:53:42;12.90;81.80
2489;DHT22;1255;48.716;9.124;2023-03-01T08:56:09;12.90;81.40
2489;DHT22;1255;48.716;9.124;2023-03-01T08:58:37;13.30;80.10
2489;DHT22;1255;48.716;9.124;2023-03-01T09:01:09;13.80;78.70
2489;DHT22;1255;48.716;9.124;2023-03-01T09:03:36;14.00;79.20
2489;DHT22;1255;48.716;9.124;2023-03-01T09:06:04;14.10;77.20
2489;DHT22;1255;48.716;9.124;2023-03-01T09:08:34;14.40;76.20
2489;DHT22;1255;48.716;9.124;2023-03-01T09:11:02;14.70;76.20
2489;DHT22;1255;48.716;9.124;2023-03-01T09:13:29;14.70;76.00
2489;DHT22;1255;48.716;9.124;2023-03-01T09:15:57;14.80;74.50
2489;DHT22;1255;48.716;9.124;2023-03-01T09:18:26;14.60;74.70
2489;DHT22;1255;48.716;9.124;2023-03-01T09:20:53;14.30;74.90
2489;DHT22;1255;48.716;9.124;2023-03-01T09:23:21;14.40;75.00
2489;DHT22;1255;48.716;9.124;2023-03-01T09:25:48;14.70;73.80
2489;DHT22;1255;48.716;9.124;2023-03-01T09:28:15;15.50;73.40
2489;DHT22;1255;48.716;9.124;2023-03-01T09:30:42;15.90;72.60
2489;DHT22;1255;48.716;9.124;2023-03-01T09:33:09;16.00;72.10
2489;DHT22;1255;48.716;9.124;2023-03-01T09:35:41;16.20;71.60
2489;DHT22;1255;48.716;9.124;2023-03-01T09:38:12;15.60;71.10
2489;DHT22;1255;48.716;9.124;2023-03-01T09:40:42;14.70;72.60
2489;DHT22;1255;48.716;9.124;2023-03-01T09:43:18;14.70;72.80
2489;DHT22;1255;48.716;9.124;2023-03-01T09:45:48;14.50;73.50
2489;DHT22;1255;48.716;9.124;2023-03-01T09:48:19;14.30;73.30
2489;DHT22;1255;48.716;9.124;2023-03-01T09:50:51;14.40;73.80
2489;DHT22;1255;48.716;9.124;2023-03-01T09:54:05;14.50;74.50
2489;DHT22;1255;48.716;9.124;2023-03-01T09:56:37;14.70;71.80
2489;DHT22;1255;48.716;9.124;2023-03-01T09:59:16;14.60;71.70
2489;DHT22;1255;48.716;9.124;2023-03-01T10:01:50;14.80;72.90
2489;DHT22;1255;48.716;9.124;2023-03-01T10:04:28;15.40;71.40
2489;DHT22;1255;48.716;9.124;2023-03-01T10:07:17;16.10;69.80
2489;DHT22;1255;48.716;9.124;2023-03-01T10:09:48;16.30;70.80
2489;DHT22;1255;48.716;9.124;2023-03-01T10:12:17;16.80;69.30
2489;DHT22;1255;48.716;9.124;2023-03-01T10:14:51;17.80;68.70
2489;DHT22;1255;48.716;9.124;2023-03-01T10:17:26;17.90;67.50
2489;DHT22;1255;48.716;9.124;2023-03-01T10:19:55;17.20;67.90
2489;DHT22;1255;48.716;9.124;2023-03-01T10:22:28;17.30;67.70
2489;DHT22;1255;48.716;9.124;2023-03-01T10:24:59;16.90;67.80
2489;DHT22;1255;48.716;9.124;2023-03-01T10:27:36;17.30;67.70
2489;DHT22;1255;48.716;9.124;2023-03-01T10:30:12;18.10;67.20
2489;DHT22;1255;48.716;9.124;2023-03-01T10:32:41;18.30;66.50
2489;DHT22;1255;48.716;9.124;2023-03-01T10:35:17;18.70;66.20
2489;DHT22;1255;48.716;9.124;2023-03-01T10:37:58;18.70;65.80
2489;DHT22;1255;48.716;9.124;2023-03-01T10:40:28;17.90;65.80
2489;DHT22;1255;48.716;9.124;2023-03-01T10:42:58;18.30;65.50
2489;DHT22;1255;48.716;9.124;2023-03-01T10:45:35;18.80;65.00
2489;DHT22;1255;48.716;9.124;2023-03-01T10:48:11;19.10;64.80
2489;DHT22;1255;48.716;9.124;2023-03-01T10:50:41;19.10;64.20
2489;DHT22;1255;48.716;9.124;2023-03-01T10:53:24;19.40;64.90
2489;DHT22;1255;48.716;9.124;2023-03-01T10:56:01;19.70;63.30
2489;DHT22;1255;48.716;9.124;2023-03-01T10:58:31;19.90;62.70
2489;DHT22;1255;48.716;9.124;2023-03-01T11:00:59;20.10;62.90
2489;DHT22;1255;48.716;9.124;2023-03-01T11:03:29;20.60;62.70
2489;DHT22;1255;48.716;9.124;2023-03-01T11:06:21;20.60;63.00
2489;DHT22;1255;48.716;9.124;2023-03-01T11:08:50;20.60;62.00
2489;DHT22;1255;48.716;9.124;2023-03-01T11:11:31;20.10;61.30
2489;DHT22;1255;48.716;9.124;2023-03-01T11:14:00;19.50;62.80
2489;DHT22;1255;48.716;9.124;2023-03-01T11:16:32;19.30;63.30
2489;DHT22;1255;48.716;9.124;2023-03-01T11:19:03;19.80;62.80
2489;DHT22;1255;48.716;9.124;2023-03-01T11:21:32;20.00;62.80
2489;DHT22;1255;48.716;9.124;2023-03-01T11:24:03;20.10;62.30
2489;DHT22;1255;48.716;9.124;2023-03-01T11:26:31;20.40;61.70
2489;DHT22;1255;48.716;9.124;2023-03-01T11:29:05;20.70;60.80
2489;DHT22;1255;48.716;9.124;2023-03-01T11:31:33;21.40;60.10
2489;DHT22;1255;48.716;9.124;2023-03-01T11:34:06;21.00;59.90
2489;DHT22;1255;48.716;9.124;2023-03-01T11:36:39;20.70;60.50
2489;DHT22;1255;48.716;9.124;2023-03-01T11:39:20;20.60;60.30
2489;DHT22;1255;48.716;9.124;2023-03-01T11:42:00;20.70;61.90
2489;DHT22;1255;48.716;9.124;2023-03-01T11:44:31;20.50;59.50
2489;DHT22;1255;48.716;9.124;2023-03-01T11:47:15;20.60;60.40
2489;DHT22;1255;48.716;9.124;2023-03-01T11:50:01;20.10;60.10
2489;DHT22;1255;48.716;9.124;2023-03-01T11:52:38;20.00;60.60
2489;DHT22;1255;48.716;9.124;2023-03-01T11:55:42;19.50;60.20
2489;DHT22;1255;48.716;9.124;2023-03-01T11:58:25;19.60;61.10
2489;DHT22;1255;48.716;9.124;2023-03-01T12:01:10;19.90;60.40
2489;DHT22;1255;48.716;9.124;2023-03-01T12:04:08;20.50;60.20
2489;DHT22;1255;48.716;9.124;2023-03-01T12:06:44;20.30;59.60
2489;DHT22;1255;48.716;9.124;2023-03-01T12:09:26;19.10;60.80
2489;DHT22;1255;48.716;9.124;2023-03-01T12:15:22;20.20;61.00
2489;DHT22;1255;48.716;9.124;2023-03-01T12:18:19;20.00;60.60
2489;DHT22;1255;48.716;9.124;2023-03-01T12:20:58;19.60;60.70
2489;DHT22;1255;48.716;9.124;2023-03-01T12:26:28;20.20;60.10
2489;DHT22;1255;48.716;9.124;2023-03-01T12:29:06;20.50;60.00
2489;DHT22;1255;48.716;9.124;2023-03-01T12:32:05;20.10;59.80
2489;DHT22;1255;48.716;9.124;2023-03-01T12:34:55;19.60;60.50
2489;DHT22;1255;48.716;9.124;2023-03-01T12:37:36;20.10;59.60
2489;DHT22;1255;48.716;9.124;2023-03-01T12:40:31;20.60;59.90
2489;DHT22;1255;48.716;9.124;2023-03-01T12:43:08;20.70;60.50
2489;DHT22;1255;48.716;9.124;2023-03-01T12:45:50;20.80;59.90
2489;DHT22;1255;48.716;9.124;2023-03-01T12:48:28;20.70;60.90
2489;DHT22;1255;48.716;9.124;2023-03-01T12:51:01;20.90;59.90
2489;DHT22;1255;48.716;9.124;2023-03-01T12:53:32;21.20;59.80
2489;DHT22;1255;48.716;9.124;2023-03-01T12:56:04;21.00;59.20
2489;DHT22;1255;48.716;9.124;2023-03-01T12:58:33;20.90;60.40
2489;DHT22;1255;48.716;9.124;2023-03-01T13:01:15;21.00;59.90
2489;DHT22;1255;48.716;9.124;2023-03-01T13:04:08;20.70;59.20
2489;DHT22;1255;48.716;9.124;2023-03-01T13:06:44;20.70;60.60
2489;DHT22;1255;48.716;9.124;2023-03-01T13:09:21;20.50;59.30
2489;DHT22;1255;48.716;9.124;2023-03-01T13:11:49;20.00;60.70
2489;DHT22;1255;48.716;9.124;2023-03-01T13:14:45;19.40;60.40
2489;DHT22;1255;48.716;9.124;2023-03-01T13:17:32;19.70;60.50
2489;DHT22;1255;48.716;9.124;2023-03-01T13:19:59;19.50;61.00
2489;DHT22;1255;48.716;9.124;2023-03-01T13:22:29;19.30;61.40
2489;DHT22;1255;48.716;9.124;2023-03-01T13:25:12;18.80;61.40
2489;DHT22;1255;48.716;9.124;2023-03-01T13:27:40;18.70;60.70
2489;DHT22;1255;48.716;9.124;2023-03-01T13:30:38;18.60;62.70
2489;DHT22;1255;48.716;9.124;2023-03-01T13:36:02;18.60;62.50
2489;DHT22;1255;48.716;9.124;2023-03-01T13:38:44;18.00;61.50
2489;DHT22;1255;48.716;9.124;2023-03-01T13:41:12;17.70;63.90
2489;DHT22;1255;48.716;9.124;2023-03-01T13:43:41;17.40;63.20
2489;DHT22;1255;48.716;9.124;2023-03-01T13:48:40;17.80;63.10
2489;DHT22;1255;48.716;9.124;2023-03-01T13:51:10;17.70;63.50
2489;DHT22;1255;48.716;9.124;2023-03-01T13:53:41;17.70;63.30
2489;DHT22;1255;48.716;9.124;2023-03-01T13:56:12;17.70;64.20
2489;DHT22;1255;48.716;9.124;2023-03-01T13:58:49;17.70;63.80
2489;DHT22;1255;48.716;9.124;2023-03-01T14:01:29;17.60;63.70
2489;DHT22;1255;48.716;9.124;2023-03-01T14:03:56;17.70;64.10
2489;DHT22;1255;48.716;9.124;2023-03-01T14:06:26;17.60;64.40
2489;DHT22;1255;48.716;9.124;2023-03-01T14:09:02;17.80;64.50
2489;DHT22;1255;48.716;9.124;2023-03-01T14:11:52;17.80;63.80
2489;DHT22;1255;48.716;9.124;2023-03-01T14:14:35;17.30;63.50
2489;DHT22;1255;48.716;9.124;2023-03-01T14:17:21;17.20;64.80
2489;DHT22;1255;48.716;9.124;2023-03-01T14:19:57;17.20;64.50
2489;DHT22;1255;48.716;9.124;2023-03-01T14:22:29;17.00;65.30
2489;DHT22;1255;48.716;9.124;2023-03-01T14:24:59;16.80;66.00
2489;DHT22;1255;48.716;9.124;2023-03-01T14:27:28;16.60;65.50
2489;DHT22;1255;48.716;9.124;2023-03-01T14:29:58;16.50;65.90
2489;DHT22;1255;48.716;9.124;2023-03-01T14:32:26;16.30;65.80
2489;DHT22;1255;48.716;9.124;2023-03-01T14:34:53;16.20;66.80
2489;DHT22;1255;48.716;9.124;2023-03-01T14:37:22;15.70;66.10
2489;DHT22;1255;48.716;9.124;2023-03-01T14:39:52;15.60;67.50
2489;DHT22;1255;48.716;9.124;2023-03-01T14:42:21;15.40;67.00
2489;DHT22;1255;48.716;9.124;2023-03-01T14:47:23;15.00;68.20
2489;DHT22;1255;48.716;9.124;2023-03-01T14:49:56;14.80;68.70
2489;DHT22;1255;48.716;9.124;2023-03-01T14:52:28;14.50;68.40
2489;DHT22;1255;48.716;9.124;2023-03-01T14:55:02;14.10;70.00
2489;DHT22;1255;48.716;9.124;2023-03-01T14:57:30;13.90;70.90
2489;DHT22;1255;48.716;9.124;2023-03-01T14:59:59;13.80;70.70
2489;DHT22;1255;48.716;9.124;2023-03-01T15:02:32;13.70;71.20
2489;DHT22;1255;48.716;9.124;2023-03-01T15:05:02;13.40;71.00
2489;DHT22;1255;48.716;9.124;2023-03-01T15:07:34;13.40;71.50
2489;DHT22;1255;48.716;9.124;2023-03-01T15:10:05;13.40;71.80
2489;DHT22;1255;48.716;9.124;2023-03-01T15:12:35;13.20;71.50
2489;DHT22;1255;48.716;9.124;2023-03-01T15:18:05;13.10;72.50
2489;DHT22;1255;48.716;9.124;2023-03-01T15:20:38;13.00;72.40
2489;DHT22;1255;48.716;9.124;2023-03-01T15:23:06;12.80;73.10
2489;DHT22;1255;48.716;9.124;2023-03-01T15:25:44;12.60;73.30
2489;DHT22;1255;48.716;9.124;2023-03-01T15:28:18;12.40;73.40
2489;DHT22;1255;48.716;9.124;2023-03-01T15:30:46;12.10;73.60
2489;DHT22;1255;48.716;9.124;2023-03-01T15:33:31;12.00;73.90
2489;DHT22;1255;48.716;9.124;2023-03-01T15:35:58;11.70;74.70
2489;DHT22;1255;48.716;9.124;2023-03-01T15:38:28;11.40;75.20
2489;DHT22;1255;48.716;9.124;2023-03-01T15:40:57;11.30;75.70
2489;DHT22;1255;48.716;9.124;2023-03-01T15:43:42;11.30;76.10
2489;DHT22;1255;48.716;9.124;2023-03-01T15:46:18;11.20;76.40
2489;DHT22;1255;48.716;9.124;2023-03-01T15:48:46;11.10;76.60
2489;DHT22;1255;48.716;9.124;2023-03-01T15:51:14;10.80;77.10
2489;DHT22;1255;48.716;9.124;2023-03-01T15:53:42;10.50;77.20
2489;DHT22;1255;48.716;9.124;2023-03-01T15:56:10;10.30;77.90
2489;DHT22;1255;48.716;9.124;2023-03-01T15:58:37;10.10;78.10
2489;DHT22;1255;48.716;9.124;2023-03-01T16:01:11;10.00;78.50
2489;DHT22;1255;48.716;9.124;2023-03-01T16:03:38;9.80;80.10
2489;DHT22;1255;48.716;9.124;2023-03-01T16:06:06;9.60;80.40
2489;DHT22;1255;48.716;9.124;2023-03-01T16:08:33;9.40;80.80
2489;DHT22;1255;48.716;9.124;2023-03-01T16:11:00;9.20;81.10
2489;DHT22;1255;48.716;9.124;2023-03-01T16:13:31;8.90;81.70
2489;DHT22;1255;48.716;9.124;2023-03-01T16:15:58;8.80;81.90
2489;DHT22;1255;48.716;9.124;2023-03-01T16:18:24;8.50;82.30
2489;DHT22;1255;48.716;9.124;2023-03-01T16:20:51;8.30;82.70
2489;DHT22;1255;48.716;9.124;2023-03-01T16:23:19;8.00;83.00
2489;DHT22;1255;48.716;9.124;2023-03-01T16:25:46;7.80;83.40
2489;DHT22;1255;48.716;9.124;2023-03-01T16:28:13;7.70;83.80
2489;DHT22;1255;48.716;9.124;2023-03-01T16:30:45;7.60;83.60
2489;DHT22;1255;48.716;9.124;2023-03-01T16:33:12;7.50;84.00
2489;DHT22;1255;48.716;9.124;2023-03-01T16:35:40;7.40;84.20
2489;DHT22;1255;48.716;9.124;2023-03-01T16:38:06;7.20;84.80
2489;DHT22;1255;48.716;9.124;2023-03-01T16:40:33;7.00;84.80
2489;DHT22;1255;48.716;9.124;2023-03-01T16:43:00;7.00;85.30